Saint Francis, KS

1:57 PM CDT on July 25, 2016 (GMT -0500)
South Center on Hwy 36 | | Change Station

Elev 3350 ft 39.77 °N, 101.80 °W | Updated 26 seconds ago

Clear
Clear
81.7 °F
Feels Like 83 °F
N
7.6
Wind Variable Wind from SSE
Gusts 9.8 mph

Today
High -- | Low -- °F
--% Chance of Precip.
Yesterday
High -- | Low -- °F
Precip. -- in
Pressure 30.17 in
Visibility 10.0 miles
Clouds Clear
Heat Index 83 °F
Dew Point 65 °F
Humidity 56%
Rainfall 0.00 in
Snow Depth Not available.
6:40 AM 9:06 PM
Waning Gibbous, 63% visible
METAR KSYF 251835Z AUTO 13013G18KT 10SM CLR 28/17 A3017 RMK AO2 T02770168
Pressure 30.17 in
Visibility 10.0 miles
Clouds Clear
Heat Index 83 °F
Dew Point 65 °F
Humidity 56%
Rainfall 0.00 in
Snow Depth Not available.
6:40 AM 9:06 PM
Waning Gibbous, 63% visible
METAR KSYF 251835Z AUTO 13013G18KT 10SM CLR 28/17 A3017 RMK AO2 T02770168

10-Day Weather Forecast

Almanac

Astronomy

Jul. 25, 2016 Rise Set
Actual Time
Civil Twilight
Nautical Twilight
Astronomical Twilight
Moon
Length of Visible Light
Length of Day
Tomorrow will be .
, % of the Moon is Illuminated

Today's Extremes

State Highs State Lows

Community

WunderPhotos

Upload Photos

1,927,370 photos uploaded!

WunderBlog® & News

Nearby

Air Quality

  Air Quality AQ Index Pollutant
Not available.

Snow Depth

Station Depth Elevation

Earthquake Activity

City Distance Mag. Time & Date
Minimum magnitude displayed is 2.5.

Coastal Water Temperatures

Place Temperature

Stations

Nearby Weather Stations

Station Location Temp. Windchill Dew Point Humidity Wind Precip. Elev Updated Type
                   

Watches & Warnings

There are currently no watches in effect.